sensor_id;sensor_type;location;lat;lon;timestamp;P1;durP1;ratioP1;P2;durP2;ratioP2
73084;SDS011;62974;49.460;10.892;2023-07-20T00:02:11;4.15;;;2.17;;
73084;SDS011;62974;49.460;10.892;2023-07-20T00:04:39;3.90;;;2.38;;
73084;SDS011;62974;49.460;10.892;2023-07-20T00:07:06;3.78;;;2.10;;
73084;SDS011;62974;49.460;10.892;2023-07-20T00:09:34;5.10;;;2.58;;
73084;SDS011;62974;49.460;10.892;2023-07-20T00:12:06;4.50;;;2.38;;
73084;SDS011;62974;49.460;10.892;2023-07-20T00:14:34;6.30;;;2.50;;
73084;SDS011;62974;49.460;10.892;2023-07-20T00:17:02;6.35;;;2.55;;
73084;SDS011;62974;49.460;10.892;2023-07-20T00:19:29;3.88;;;2.20;;
73084;SDS011;62974;49.460;10.892;2023-07-20T00:21:58;6.78;;;2.22;;
73084;SDS011;62974;49.460;10.892;2023-07-20T00:24:26;6.00;;;2.20;;
73084;SDS011;62974;49.460;10.892;2023-07-20T00:26:53;3.95;;;2.17;;
73084;SDS011;62974;49.460;10.892;2023-07-20T00:29:22;4.88;;;2.25;;
73084;SDS011;62974;49.460;10.892;2023-07-20T00:31:50;5.18;;;2.65;;
73084;SDS011;62974;49.460;10.892;2023-07-20T00:34:18;4.25;;;2.38;;
73084;SDS011;62974;49.460;10.892;2023-07-20T00:36:45;6.30;;;2.53;;
73084;SDS011;62974;49.460;10.892;2023-07-20T00:39:13;4.88;;;2.30;;
73084;SDS011;62974;49.460;10.892;2023-07-20T00:41:40;5.18;;;2.58;;
73084;SDS011;62974;49.460;10.892;2023-07-20T00:44:08;4.47;;;2.55;;
73084;SDS011;62974;49.460;10.892;2023-07-20T00:46:36;6.72;;;2.85;;
73084;SDS011;62974;49.460;10.892;2023-07-20T00:49:04;4.85;;;2.30;;
73084;SDS011;62974;49.460;10.892;2023-07-20T00:51:32;6.10;;;2.45;;
73084;SDS011;62974;49.460;10.892;2023-07-20T00:54:00;7.25;;;2.75;;
73084;SDS011;62974;49.460;10.892;2023-07-20T00:56:29;5.65;;;2.65;;
73084;SDS011;62974;49.460;10.892;2023-07-20T01:01:24;4.20;;;2.47;;
73084;SDS011;62974;49.460;10.892;2023-07-20T01:03:53;5.32;;;2.80;;
73084;SDS011;62974;49.460;10.892;2023-07-20T01:06:24;4.20;;;2.38;;
73084;SDS011;62974;49.460;10.892;2023-07-20T01:09:00;6.68;;;2.47;;
73084;SDS011;62974;49.460;10.892;2023-07-20T01:11:36;4.95;;;2.17;;
73084;SDS011;62974;49.460;10.892;2023-07-20T01:14:05;5.18;;;2.42;;
73084;SDS011;62974;49.460;10.892;2023-07-20T01:16:35;4.00;;;2.08;;
73084;SDS011;62974;49.460;10.892;2023-07-20T01:19:03;4.38;;;2.03;;
73084;SDS011;62974;49.460;10.892;2023-07-20T01:21:32;3.88;;;2.42;;
73084;SDS011;62974;49.460;10.892;2023-07-20T01:29:54;6.65;;;3.28;;
73084;SDS011;62974;49.460;10.892;2023-07-20T01:32:36;8.15;;;3.03;;
73084;SDS011;62974;49.460;10.892;2023-07-20T01:35:08;5.80;;;2.42;;
73084;SDS011;62974;49.460;10.892;2023-07-20T01:37:40;6.25;;;2.63;;
73084;SDS011;62974;49.460;10.892;2023-07-20T01:40:10;5.05;;;2.45;;
73084;SDS011;62974;49.460;10.892;2023-07-20T01:42:43;5.30;;;2.40;;
73084;SDS011;62974;49.460;10.892;2023-07-20T01:45:11;4.15;;;2.08;;
73084;SDS011;62974;49.460;10.892;2023-07-20T01:47:40;4.10;;;2.35;;
73084;SDS011;62974;49.460;10.892;2023-07-20T01:50:08;5.32;;;2.67;;
73084;SDS011;62974;49.460;10.892;2023-07-20T01:55:03;5.07;;;2.20;;
73084;SDS011;62974;49.460;10.892;2023-07-20T01:57:31;4.07;;;2.25;;
73084;SDS011;62974;49.460;10.892;2023-07-20T01:59:59;9.43;;;2.50;;
73084;SDS011;62974;49.460;10.892;2023-07-20T02:02:27;3.83;;;2.50;;
73084;SDS011;62974;49.460;10.892;2023-07-20T02:07:23;5.45;;;2.65;;
73084;SDS011;62974;49.460;10.892;2023-07-20T02:09:51;4.22;;;2.47;;
73084;SDS011;62974;49.460;10.892;2023-07-20T02:12:19;6.28;;;2.70;;
73084;SDS011;62974;49.460;10.892;2023-07-20T02:14:46;6.75;;;2.70;;
73084;SDS011;62974;49.460;10.892;2023-07-20T02:17:14;6.63;;;2.67;;
73084;SDS011;62974;49.460;10.892;2023-07-20T02:19:41;4.10;;;2.72;;
73084;SDS011;62974;49.460;10.892;2023-07-20T02:22:10;3.97;;;2.83;;
73084;SDS011;62974;49.460;10.892;2023-07-20T02:24:38;5.55;;;2.63;;
73084;SDS011;62974;49.460;10.892;2023-07-20T02:27:05;4.38;;;2.75;;
73084;SDS011;62974;49.460;10.892;2023-07-20T02:29:33;3.75;;;2.22;;
73084;SDS011;62974;49.460;10.892;2023-07-20T02:32:02;6.47;;;3.00;;
73084;SDS011;62974;49.460;10.892;2023-07-20T02:34:29;5.18;;;2.58;;
73084;SDS011;62974;49.460;10.892;2023-07-20T02:36:57;6.15;;;2.92;;
73084;SDS011;62974;49.460;10.892;2023-07-20T02:39:28;4.63;;;2.63;;
73084;SDS011;62974;49.460;10.892;2023-07-20T02:41:56;5.20;;;2.13;;
73084;SDS011;62974;49.460;10.892;2023-07-20T02:44:23;4.82;;;2.22;;
73084;SDS011;62974;49.460;10.892;2023-07-20T02:46:51;3.45;;;2.60;;
73084;SDS011;62974;49.460;10.892;2023-07-20T02:49:19;8.15;;;2.65;;
73084;SDS011;62974;49.460;10.892;2023-07-20T02:51:46;8.23;;;2.50;;
73084;SDS011;62974;49.460;10.892;2023-07-20T02:54:14;6.47;;;2.63;;
73084;SDS011;62974;49.460;10.892;2023-07-20T02:56:43;3.75;;;2.50;;
73084;SDS011;62974;49.460;10.892;2023-07-20T02:59:11;7.85;;;2.97;;
73084;SDS011;62974;49.460;10.892;2023-07-20T03:01:38;5.82;;;2.55;;
73084;SDS011;62974;49.460;10.892;2023-07-20T03:04:08;7.50;;;2.45;;
73084;SDS011;62974;49.460;10.892;2023-07-20T03:06:37;7.72;;;2.58;;
73084;SDS011;62974;49.460;10.892;2023-07-20T03:09:05;6.20;;;2.90;;
73084;SDS011;62974;49.460;10.892;2023-07-20T03:11:32;9.63;;;2.45;;
73084;SDS011;62974;49.460;10.892;2023-07-20T03:14:02;6.45;;;2.33;;
73084;SDS011;62974;49.460;10.892;2023-07-20T03:16:29;4.80;;;2.17;;
73084;SDS011;62974;49.460;10.892;2023-07-20T03:18:59;7.07;;;2.65;;
73084;SDS011;62974;49.460;10.892;2023-07-20T03:23:55;5.13;;;2.30;;
73084;SDS011;62974;49.460;10.892;2023-07-20T03:26:22;5.88;;;2.60;;
73084;SDS011;62974;49.460;10.892;2023-07-20T03:31:19;6.75;;;2.55;;
73084;SDS011;62974;49.460;10.892;2023-07-20T03:33:47;4.78;;;2.50;;
73084;SDS011;62974;49.460;10.892;2023-07-20T03:38:42;4.45;;;2.67;;
73084;SDS011;62974;49.460;10.892;2023-07-20T03:41:09;5.25;;;2.50;;
73084;SDS011;62974;49.460;10.892;2023-07-20T03:43:37;6.07;;;2.50;;
73084;SDS011;62974;49.460;10.892;2023-07-20T03:46:05;8.52;;;2.80;;
73084;SDS011;62974;49.460;10.892;2023-07-20T03:48:34;5.50;;;3.00;;
73084;SDS011;62974;49.460;10.892;2023-07-20T03:51:02;5.70;;;2.38;;
73084;SDS011;62974;49.460;10.892;2023-07-20T03:53:30;10.43;;;2.95;;
73084;SDS011;62974;49.460;10.892;2023-07-20T03:55:58;4.75;;;2.65;;
73084;SDS011;62974;49.460;10.892;2023-07-20T03:58:25;4.63;;;2.53;;
73084;SDS011;62974;49.460;10.892;2023-07-20T04:00:53;5.38;;;2.15;;
73084;SDS011;62974;49.460;10.892;2023-07-20T04:03:20;8.75;;;2.80;;
73084;SDS011;62974;49.460;10.892;2023-07-20T04:05:50;4.85;;;2.58;;
73084;SDS011;62974;49.460;10.892;2023-07-20T04:08:18;6.25;;;2.80;;
73084;SDS011;62974;49.460;10.892;2023-07-20T04:10:45;4.15;;;2.30;;
73084;SDS011;62974;49.460;10.892;2023-07-20T04:13:13;4.05;;;2.78;;
73084;SDS011;62974;49.460;10.892;2023-07-20T04:15:41;5.57;;;2.92;;
73084;SDS011;62974;49.460;10.892;2023-07-20T04:18:09;4.00;;;2.10;;
73084;SDS011;62974;49.460;10.892;2023-07-20T04:20:36;6.03;;;2.20;;
73084;SDS011;62974;49.460;10.892;2023-07-20T04:23:08;7.70;;;2.83;;
73084;SDS011;62974;49.460;10.892;2023-07-20T04:25:36;4.00;;;2.67;;
73084;SDS011;62974;49.460;10.892;2023-07-20T04:28:06;4.65;;;2.40;;
73084;SDS011;62974;49.460;10.892;2023-07-20T04:30:36;8.00;;;2.60;;
73084;SDS011;62974;49.460;10.892;2023-07-20T04:33:06;5.22;;;2.50;;
73084;SDS011;62974;49.460;10.892;2023-07-20T04:35:49;6.38;;;3.05;;
73084;SDS011;62974;49.460;10.892;2023-07-20T04:38:20;8.13;;;2.67;;
73084;SDS011;62974;49.460;10.892;2023-07-20T04:40:48;10.18;;;3.17;;
73084;SDS011;62974;49.460;10.892;2023-07-20T04:43:17;5.75;;;2.47;;
73084;SDS011;62974;49.460;10.892;2023-07-20T04:45:44;9.02;;;2.25;;
73084;SDS011;62974;49.460;10.892;2023-07-20T04:48:13;9.15;;;2.42;;
73084;SDS011;62974;49.460;10.892;2023-07-20T04:50:42;5.00;;;2.53;;
73084;SDS011;62974;49.460;10.892;2023-07-20T04:53:11;4.40;;;2.30;;
73084;SDS011;62974;49.460;10.892;2023-07-20T04:55:46;5.63;;;3.10;;
73084;SDS011;62974;49.460;10.892;2023-07-20T04:58:16;6.93;;;2.50;;
73084;SDS011;62974;49.460;10.892;2023-07-20T05:00:44;7.40;;;2.85;;
73084;SDS011;62974;49.460;10.892;2023-07-20T05:03:11;4.75;;;2.30;;
73084;SDS011;62974;49.460;10.892;2023-07-20T05:05:39;4.18;;;2.45;;
73084;SDS011;62974;49.460;10.892;2023-07-20T05:08:07;3.92;;;2.30;;
73084;SDS011;62974;49.460;10.892;2023-07-20T05:10:34;3.83;;;2.35;;
73084;SDS011;62974;49.460;10.892;2023-07-20T05:13:03;4.78;;;2.25;;
73084;SDS011;62974;49.460;10.892;2023-07-20T05:15:32;7.13;;;2.50;;
73084;SDS011;62974;49.460;10.892;2023-07-20T05:18:00;4.63;;;2.97;;
73084;SDS011;62974;49.460;10.892;2023-07-20T05:20:28;8.90;;;2.72;;
73084;SDS011;62974;49.460;10.892;2023-07-20T05:22:57;3.63;;;2.45;;
73084;SDS011;62974;49.460;10.892;2023-07-20T05:25:25;5.18;;;2.15;;
73084;SDS011;62974;49.460;10.892;2023-07-20T05:27:56;6.55;;;2.50;;
73084;SDS011;62974;49.460;10.892;2023-07-20T05:30:25;5.22;;;1.83;;
73084;SDS011;62974;49.460;10.892;2023-07-20T05:32:55;7.25;;;2.20;;
73084;SDS011;62974;49.460;10.892;2023-07-20T05:35:23;5.05;;;2.22;;
73084;SDS011;62974;49.460;10.892;2023-07-20T05:37:50;3.78;;;2.20;;
73084;SDS011;62974;49.460;10.892;2023-07-20T05:40:18;5.80;;;2.13;;
73084;SDS011;62974;49.460;10.892;2023-07-20T05:42:47;4.50;;;2.25;;
73084;SDS011;62974;49.460;10.892;2023-07-20T05:45:18;4.00;;;2.47;;
73084;SDS011;62974;49.460;10.892;2023-07-20T05:47:47;4.55;;;2.17;;
73084;SDS011;62974;49.460;10.892;2023-07-20T05:50:15;7.32;;;2.38;;
73084;SDS011;62974;49.460;10.892;2023-07-20T05:52:42;6.53;;;2.22;;
73084;SDS011;62974;49.460;10.892;2023-07-20T05:55:10;5.47;;;2.30;;
73084;SDS011;62974;49.460;10.892;2023-07-20T05:57:38;4.53;;;2.35;;
73084;SDS011;62974;49.460;10.892;2023-07-20T06:00:08;4.53;;;2.15;;
73084;SDS011;62974;49.460;10.892;2023-07-20T06:02:40;4.78;;;1.85;;
73084;SDS011;62974;49.460;10.892;2023-07-20T06:05:10;4.15;;;2.10;;
73084;SDS011;62974;49.460;10.892;2023-07-20T06:07:38;4.40;;;1.92;;
73084;SDS011;62974;49.460;10.892;2023-07-20T06:10:06;7.03;;;2.28;;
73084;SDS011;62974;49.460;10.892;2023-07-20T06:15:02;4.82;;;2.15;;
73084;SDS011;62974;49.460;10.892;2023-07-20T06:17:30;4.00;;;2.33;;
73084;SDS011;62974;49.460;10.892;2023-07-20T06:19:59;6.45;;;2.40;;
73084;SDS011;62974;49.460;10.892;2023-07-20T06:22:28;3.97;;;1.90;;
73084;SDS011;62974;49.460;10.892;2023-07-20T06:24:55;3.92;;;2.40;;
73084;SDS011;62974;49.460;10.892;2023-07-20T06:27:23;4.00;;;2.25;;
73084;SDS011;62974;49.460;10.892;2023-07-20T06:29:50;4.10;;;2.35;;
73084;SDS011;62974;49.460;10.892;2023-07-20T06:32:18;3.33;;;2.13;;
73084;SDS011;62974;49.460;10.892;2023-07-20T06:34:45;4.32;;;2.10;;
73084;SDS011;62974;49.460;10.892;2023-07-20T06:37:13;3.58;;;2.17;;
73084;SDS011;62974;49.460;10.892;2023-07-20T06:39:42;5.32;;;2.10;;
73084;SDS011;62974;49.460;10.892;2023-07-20T06:42:12;4.10;;;1.65;;
73084;SDS011;62974;49.460;10.892;2023-07-20T06:44:40;4.75;;;2.20;;
73084;SDS011;62974;49.460;10.892;2023-07-20T06:47:07;3.17;;;1.95;;
73084;SDS011;62974;49.460;10.892;2023-07-20T06:49:35;4.53;;;1.58;;
73084;SDS011;62974;49.460;10.892;2023-07-20T06:52:03;4.00;;;1.90;;
73084;SDS011;62974;49.460;10.892;2023-07-20T06:54:31;5.10;;;2.25;;
73084;SDS011;62974;49.460;10.892;2023-07-20T06:57:02;2.65;;;1.50;;
73084;SDS011;62974;49.460;10.892;2023-07-20T06:59:34;5.65;;;2.03;;
73084;SDS011;62974;49.460;10.892;2023-07-20T07:02:07;3.72;;;2.00;;
73084;SDS011;62974;49.460;10.892;2023-07-20T07:04:41;4.10;;;1.70;;
73084;SDS011;62974;49.460;10.892;2023-07-20T07:07:09;3.25;;;1.95;;
73084;SDS011;62974;49.460;10.892;2023-07-20T07:09:36;4.80;;;1.70;;
73084;SDS011;62974;49.460;10.892;2023-07-20T07:12:06;2.78;;;1.55;;
73084;SDS011;62974;49.460;10.892;2023-07-20T07:14:34;4.07;;;2.30;;
73084;SDS011;62974;49.460;10.892;2023-07-20T07:17:02;2.70;;;1.65;;
73084;SDS011;62974;49.460;10.892;2023-07-20T07:19:31;3.63;;;1.63;;
73084;SDS011;62974;49.460;10.892;2023-07-20T07:21:58;2.92;;;1.40;;
73084;SDS011;62974;49.460;10.892;2023-07-20T07:26:55;5.03;;;1.88;;
73084;SDS011;62974;49.460;10.892;2023-07-20T07:29:24;5.05;;;1.98;;
73084;SDS011;62974;49.460;10.892;2023-07-20T07:31:51;3.65;;;1.55;;
73084;SDS011;62974;49.460;10.892;2023-07-20T07:34:19;4.10;;;1.73;;
73084;SDS011;62974;49.460;10.892;2023-07-20T07:36:46;4.22;;;1.63;;
73084;SDS011;62974;49.460;10.892;2023-07-20T07:39:15;5.53;;;1.73;;
73084;SDS011;62974;49.460;10.892;2023-07-20T07:41:45;6.43;;;1.90;;
73084;SDS011;62974;49.460;10.892;2023-07-20T07:44:13;3.45;;;1.80;;
73084;SDS011;62974;49.460;10.892;2023-07-20T07:46:41;3.78;;;1.50;;
73084;SDS011;62974;49.460;10.892;2023-07-20T07:49:09;4.53;;;1.40;;
73084;SDS011;62974;49.460;10.892;2023-07-20T07:51:36;3.05;;;1.35;;
73084;SDS011;62974;49.460;10.892;2023-07-20T07:54:04;3.40;;;1.75;;
73084;SDS011;62974;49.460;10.892;2023-07-20T07:56:32;3.65;;;1.30;;
73084;SDS011;62974;49.460;10.892;2023-07-20T07:58:59;4.28;;;1.45;;
73084;SDS011;62974;49.460;10.892;2023-07-20T08:01:27;4.10;;;1.35;;
73084;SDS011;62974;49.460;10.892;2023-07-20T08:03:56;3.05;;;1.20;;
73084;SDS011;62974;49.460;10.892;2023-07-20T08:06:24;1.98;;;1.17;;
73084;SDS011;62974;49.460;10.892;2023-07-20T08:08:52;3.03;;;1.55;;
73084;SDS011;62974;49.460;10.892;2023-07-20T08:11:19;3.85;;;1.50;;
73084;SDS011;62974;49.460;10.892;2023-07-20T08:13:47;3.78;;;1.17;;
73084;SDS011;62974;49.460;10.892;2023-07-20T08:16:14;4.50;;;1.80;;
73084;SDS011;62974;49.460;10.892;2023-07-20T08:18:43;3.25;;;1.30;;
73084;SDS011;62974;49.460;10.892;2023-07-20T08:21:13;2.53;;;0.93;;
73084;SDS011;62974;49.460;10.892;2023-07-20T08:23:41;3.40;;;1.27;;
73084;SDS011;62974;49.460;10.892;2023-07-20T08:26:08;2.40;;;1.13;;
73084;SDS011;62974;49.460;10.892;2023-07-20T08:28:36;3.78;;;1.55;;
73084;SDS011;62974;49.460;10.892;2023-07-20T08:31:05;2.38;;;1.27;;
73084;SDS011;62974;49.460;10.892;2023-07-20T08:33:33;2.60;;;1.38;;
73084;SDS011;62974;49.460;10.892;2023-07-20T08:36:01;4.35;;;1.13;;
73084;SDS011;62974;49.460;10.892;2023-07-20T08:38:31;3.63;;;0.90;;
73084;SDS011;62974;49.460;10.892;2023-07-20T08:40:59;3.78;;;1.42;;
73084;SDS011;62974;49.460;10.892;2023-07-20T08:43:28;3.15;;;1.13;;
73084;SDS011;62974;49.460;10.892;2023-07-20T08:45:55;2.45;;;0.70;;
73084;SDS011;62974;49.460;10.892;2023-07-20T08:48:24;4.07;;;1.30;;
73084;SDS011;62974;49.460;10.892;2023-07-20T08:50:54;1.90;;;1.00;;
73084;SDS011;62974;49.460;10.892;2023-07-20T08:53:23;2.97;;;1.30;;
73084;SDS011;62974;49.460;10.892;2023-07-20T08:55:52;1.65;;;1.02;;
73084;SDS011;62974;49.460;10.892;2023-07-20T08:58:20;3.80;;;1.40;;
73084;SDS011;62974;49.460;10.892;2023-07-20T09:00:47;2.95;;;1.10;;
73084;SDS011;62974;49.460;10.892;2023-07-20T09:03:17;2.13;;;1.23;;
73084;SDS011;62974;49.460;10.892;2023-07-20T09:05:46;4.07;;;1.00;;
73084;SDS011;62974;49.460;10.892;2023-07-20T09:08:13;2.97;;;1.13;;
73084;SDS011;62974;49.460;10.892;2023-07-20T09:10:41;1.63;;;0.80;;
73084;SDS011;62974;49.460;10.892;2023-07-20T09:13:10;1.27;;;0.70;;
73084;SDS011;62974;49.460;10.892;2023-07-20T09:15:45;3.53;;;1.00;;
73084;SDS011;62974;49.460;10.892;2023-07-20T09:18:14;1.27;;;0.60;;
73084;SDS011;62974;49.460;10.892;2023-07-20T09:20:51;1.83;;;0.90;;
73084;SDS011;62974;49.460;10.892;2023-07-20T09:23:18;1.15;;;0.75;;
73084;SDS011;62974;49.460;10.892;2023-07-20T09:25:46;2.60;;;0.57;;
73084;SDS011;62974;49.460;10.892;2023-07-20T09:28:18;2.60;;;0.70;;
73084;SDS011;62974;49.460;10.892;2023-07-20T09:30:46;1.55;;;0.90;;
73084;SDS011;62974;49.460;10.892;2023-07-20T09:33:19;1.80;;;0.57;;
73084;SDS011;62974;49.460;10.892;2023-07-20T09:35:51;1.15;;;0.63;;
73084;SDS011;62974;49.460;10.892;2023-07-20T09:38:21;1.02;;;0.60;;
73084;SDS011;62974;49.460;10.892;2023-07-20T09:40:50;2.25;;;0.60;;
73084;SDS011;62974;49.460;10.892;2023-07-20T09:43:24;1.75;;;0.60;;
73084;SDS011;62974;49.460;10.892;2023-07-20T09:45:57;4.80;;;1.00;;
73084;SDS011;62974;49.460;10.892;2023-07-20T09:48:25;1.67;;;0.90;;
73084;SDS011;62974;49.460;10.892;2023-07-20T09:50:56;2.55;;;0.88;;
73084;SDS011;62974;49.460;10.892;2023-07-20T09:53:24;2.17;;;0.90;;
73084;SDS011;62974;49.460;10.892;2023-07-20T09:55:52;1.85;;;0.68;;
73084;SDS011;62974;49.460;10.892;2023-07-20T09:58:21;1.25;;;0.60;;
73084;SDS011;62974;49.460;10.892;2023-07-20T10:00:51;2.58;;;1.10;;
73084;SDS011;62974;49.460;10.892;2023-07-20T10:03:21;0.80;;;0.68;;
73084;SDS011;62974;49.460;10.892;2023-07-20T10:05:51;1.38;;;0.80;;
73084;SDS011;62974;49.460;10.892;2023-07-20T10:08:25;2.80;;;0.90;;
73084;SDS011;62974;49.460;10.892;2023-07-20T10:10:57;2.67;;;1.00;;
73084;SDS011;62974;49.460;10.892;2023-07-20T10:13:27;1.75;;;0.60;;
73084;SDS011;62974;49.460;10.892;2023-07-20T10:15:59;1.65;;;0.77;;
73084;SDS011;62974;49.460;10.892;2023-07-20T10:18:31;1.33;;;0.75;;
73084;SDS011;62974;49.460;10.892;2023-07-20T10:23:36;2.03;;;0.63;;
73084;SDS011;62974;49.460;10.892;2023-07-20T10:26:07;2.85;;;0.90;;
73084;SDS011;62974;49.460;10.892;2023-07-20T10:28:36;1.98;;;0.90;;
73084;SDS011;62974;49.460;10.892;2023-07-20T10:31:07;2.35;;;0.95;;
73084;SDS011;62974;49.460;10.892;2023-07-20T10:33:37;1.35;;;0.60;;
73084;SDS011;62974;49.460;10.892;2023-07-20T10:36:05;0.95;;;0.60;;
73084;SDS011;62974;49.460;10.892;2023-07-20T10:41:17;1.77;;;0.77;;
73084;SDS011;62974;49.460;10.892;2023-07-20T10:43:46;1.65;;;0.77;;
73084;SDS011;62974;49.460;10.892;2023-07-20T10:46:16;4.20;;;1.17;;
73084;SDS011;62974;49.460;10.892;2023-07-20T10:49:01;2.10;;;0.65;;
73084;SDS011;62974;49.460;10.892;2023-07-20T10:51:30;3.88;;;1.30;;
73084;SDS011;62974;49.460;10.892;2023-07-20T10:54:07;1.60;;;0.82;;
73084;SDS011;62974;49.460;10.892;2023-07-20T10:56:35;1.75;;;0.90;;
73084;SDS011;62974;49.460;10.892;2023-07-20T10:59:17;1.60;;;0.77;;
73084;SDS011;62974;49.460;10.892;2023-07-20T11:01:48;2.28;;;0.80;;
73084;SDS011;62974;49.460;10.892;2023-07-20T11:04:16;1.67;;;0.60;;
73084;SDS011;62974;49.460;10.892;2023-07-20T11:06:45;1.38;;;0.70;;
73084;SDS011;62974;49.460;10.892;2023-07-20T11:09:13;2.17;;;0.90;;
73084;SDS011;62974;49.460;10.892;2023-07-20T11:11:42;2.30;;;0.73;;
73084;SDS011;62974;49.460;10.892;2023-07-20T11:14:10;1.92;;;0.60;;
73084;SDS011;62974;49.460;10.892;2023-07-20T11:16:49;1.42;;;0.70;;
73084;SDS011;62974;49.460;10.892;2023-07-20T11:19:18;1.48;;;0.80;;
73084;SDS011;62974;49.460;10.892;2023-07-20T11:21:50;1.38;;;0.63;;
73084;SDS011;62974;49.460;10.892;2023-07-20T11:24:28;2.78;;;0.82;;
73084;SDS011;62974;49.460;10.892;2023-07-20T11:29:24;1.58;;;0.75;;
73084;SDS011;62974;49.460;10.892;2023-07-20T11:32:00;1.20;;;0.60;;
73084;SDS011;62974;49.460;10.892;2023-07-20T11:34:31;3.63;;;0.65;;
73084;SDS011;62974;49.460;10.892;2023-07-20T11:36:59;1.08;;;0.70;;
73084;SDS011;62974;49.460;10.892;2023-07-20T11:39:31;1.55;;;0.77;;
73084;SDS011;62974;49.460;10.892;2023-07-20T11:41:59;0.90;;;0.55;;
73084;SDS011;62974;49.460;10.892;2023-07-20T11:44:26;1.20;;;0.70;;
73084;SDS011;62974;49.460;10.892;2023-07-20T11:47:01;2.45;;;0.60;;
73084;SDS011;62974;49.460;10.892;2023-07-20T11:52:01;1.35;;;0.70;;
73084;SDS011;62974;49.460;10.892;2023-07-20T11:54:29;1.63;;;0.70;;
73084;SDS011;62974;49.460;10.892;2023-07-20T11:57:00;2.55;;;0.90;;
73084;SDS011;62974;49.460;10.892;2023-07-20T11:59:28;1.05;;;0.70;;
73084;SDS011;62974;49.460;10.892;2023-07-20T12:01:57;0.90;;;0.47;;
73084;SDS011;62974;49.460;10.892;2023-07-20T12:04:27;2.95;;;0.73;;
73084;SDS011;62974;49.460;10.892;2023-07-20T12:06:55;2.08;;;0.65;;
73084;SDS011;62974;49.460;10.892;2023-07-20T12:09:22;1.42;;;0.60;;
73084;SDS011;62974;49.460;10.892;2023-07-20T12:12:00;1.48;;;0.50;;
73084;SDS011;62974;49.460;10.892;2023-07-20T12:14:37;4.30;;;0.60;;
73084;SDS011;62974;49.460;10.892;2023-07-20T12:17:08;1.63;;;0.93;;
73084;SDS011;62974;49.460;10.892;2023-07-20T12:19:39;1.40;;;0.75;;
73084;SDS011;62974;49.460;10.892;2023-07-20T12:22:06;1.52;;;0.70;;
73084;SDS011;62974;49.460;10.892;2023-07-20T12:24:37;1.95;;;0.73;;
73084;SDS011;62974;49.460;10.892;2023-07-20T12:27:06;1.02;;;0.50;;
73084;SDS011;62974;49.460;10.892;2023-07-20T12:29:36;1.58;;;0.75;;
73084;SDS011;62974;49.460;10.892;2023-07-20T12:32:04;1.10;;;0.70;;
73084;SDS011;62974;49.460;10.892;2023-07-20T12:34:32;1.23;;;0.70;;
73084;SDS011;62974;49.460;10.892;2023-07-20T12:37:03;1.25;;;0.55;;
73084;SDS011;62974;49.460;10.892;2023-07-20T12:39:31;1.77;;;0.60;;
73084;SDS011;62974;49.460;10.892;2023-07-20T12:42:00;0.75;;;0.50;;
73084;SDS011;62974;49.460;10.892;2023-07-20T12:44:27;1.17;;;0.52;;
73084;SDS011;62974;49.460;10.892;2023-07-20T12:46:55;1.30;;;0.80;;
73084;SDS011;62974;49.460;10.892;2023-07-20T12:49:22;3.22;;;0.80;;
73084;SDS011;62974;49.460;10.892;2023-07-20T12:51:50;0.93;;;0.70;;
73084;SDS011;62974;49.460;10.892;2023-07-20T12:54:19;1.25;;;0.70;;
73084;SDS011;62974;49.460;10.892;2023-07-20T12:56:46;1.13;;;0.60;;
73084;SDS011;62974;49.460;10.892;2023-07-20T12:59:17;3.00;;;0.95;;
73084;SDS011;62974;49.460;10.892;2023-07-20T13:01:44;4.75;;;0.95;;
73084;SDS011;62974;49.460;10.892;2023-07-20T13:04:12;1.23;;;0.80;;
73084;SDS011;62974;49.460;10.892;2023-07-20T13:09:07;1.40;;;0.80;;
73084;SDS011;62974;49.460;10.892;2023-07-20T13:11:36;4.25;;;1.05;;
73084;SDS011;62974;49.460;10.892;2023-07-20T13:14:04;1.88;;;0.90;;
73084;SDS011;62974;49.460;10.892;2023-07-20T13:16:31;0.93;;;0.57;;
73084;SDS011;62974;49.460;10.892;2023-07-20T13:19:00;1.48;;;0.60;;
73084;SDS011;62974;49.460;10.892;2023-07-20T13:21:27;2.13;;;0.93;;
73084;SDS011;62974;49.460;10.892;2023-07-20T13:23:55;1.45;;;0.68;;
73084;SDS011;62974;49.460;10.892;2023-07-20T13:26:25;2.15;;;0.80;;
73084;SDS011;62974;49.460;10.892;2023-07-20T13:28:54;1.45;;;0.75;;
73084;SDS011;62974;49.460;10.892;2023-07-20T13:31:21;1.55;;;0.60;;
73084;SDS011;62974;49.460;10.892;2023-07-20T13:33:50;2.15;;;0.70;;
73084;SDS011;62974;49.460;10.892;2023-07-20T13:36:25;2.08;;;0.88;;
73084;SDS011;62974;49.460;10.892;2023-07-20T13:38:55;3.28;;;0.80;;
73084;SDS011;62974;49.460;10.892;2023-07-20T13:41:25;1.45;;;0.77;;
73084;SDS011;62974;49.460;10.892;2023-07-20T13:43:56;1.70;;;0.68;;
73084;SDS011;62974;49.460;10.892;2023-07-20T13:46:24;1.30;;;0.70;;
73084;SDS011;62974;49.460;10.892;2023-07-20T13:48:54;2.70;;;0.88;;
73084;SDS011;62974;49.460;10.892;2023-07-20T13:51:24;1.50;;;0.80;;
73084;SDS011;62974;49.460;10.892;2023-07-20T13:53:53;2.28;;;0.80;;
73084;SDS011;62974;49.460;10.892;2023-07-20T13:56:21;1.10;;;0.60;;
73084;SDS011;62974;49.460;10.892;2023-07-20T13:58:49;1.73;;;0.70;;
73084;SDS011;62974;49.460;10.892;2023-07-20T14:01:18;1.80;;;0.90;;
73084;SDS011;62974;49.460;10.892;2023-07-20T14:03:48;3.60;;;0.88;;
73084;SDS011;62974;49.460;10.892;2023-07-20T14:06:19;1.35;;;0.90;;
73084;SDS011;62974;49.460;10.892;2023-07-20T14:08:50;2.17;;;0.80;;
73084;SDS011;62974;49.460;10.892;2023-07-20T14:11:19;1.20;;;1.00;;
73084;SDS011;62974;49.460;10.892;2023-07-20T14:13:49;1.70;;;0.70;;
73084;SDS011;62974;49.460;10.892;2023-07-20T14:16:18;2.75;;;0.85;;
73084;SDS011;62974;49.460;10.892;2023-07-20T14:18:46;1.13;;;0.73;;
73084;SDS011;62974;49.460;10.892;2023-07-20T14:21:15;2.45;;;0.90;;
73084;SDS011;62974;49.460;10.892;2023-07-20T14:23:44;2.28;;;0.93;;
73084;SDS011;62974;49.460;10.892;2023-07-20T14:26:12;1.23;;;0.70;;
73084;SDS011;62974;49.460;10.892;2023-07-20T14:28:40;1.17;;;0.60;;
73084;SDS011;62974;49.460;10.892;2023-07-20T14:31:07;2.00;;;0.70;;
73084;SDS011;62974;49.460;10.892;2023-07-20T14:33:40;1.85;;;0.70;;
73084;SDS011;62974;49.460;10.892;2023-07-20T14:36:07;1.95;;;0.70;;
73084;SDS011;62974;49.460;10.892;2023-07-20T14:38:36;1.95;;;0.88;;
73084;SDS011;62974;49.460;10.892;2023-07-20T14:41:04;1.75;;;0.70;;
73084;SDS011;62974;49.460;10.892;2023-07-20T14:43:33;1.48;;;0.80;;
73084;SDS011;62974;49.460;10.892;2023-07-20T14:48:28;1.83;;;0.88;;
73084;SDS011;62974;49.460;10.892;2023-07-20T14:50:57;1.08;;;0.68;;
73084;SDS011;62974;49.460;10.892;2023-07-20T14:53:27;1.92;;;0.80;;
73084;SDS011;62974;49.460;10.892;2023-07-20T14:56:01;1.30;;;0.70;;
73084;SDS011;62974;49.460;10.892;2023-07-20T14:58:29;2.72;;;0.80;;
73084;SDS011;62974;49.460;10.892;2023-07-20T15:01:00;1.50;;;0.70;;
73084;SDS011;62974;49.460;10.892;2023-07-20T15:03:28;2.55;;;0.88;;
73084;SDS011;62974;49.460;10.892;2023-07-20T15:05:59;1.38;;;0.73;;
73084;SDS011;62974;49.460;10.892;2023-07-20T15:08:27;1.60;;;0.80;;
73084;SDS011;62974;49.460;10.892;2023-07-20T15:10:54;2.58;;;0.70;;
73084;SDS011;62974;49.460;10.892;2023-07-20T15:15:49;1.35;;;0.55;;
73084;SDS011;62974;49.460;10.892;2023-07-20T15:18:17;1.98;;;0.80;;
73084;SDS011;62974;49.460;10.892;2023-07-20T15:21:00;1.30;;;0.70;;
73084;SDS011;62974;49.460;10.892;2023-07-20T15:23:28;1.23;;;0.60;;
73084;SDS011;62974;49.460;10.892;2023-07-20T15:25:55;2.50;;;0.80;;
73084;SDS011;62974;49.460;10.892;2023-07-20T15:28:23;2.20;;;0.80;;